createdAt,value
2023-01-27T00:00:43.790Z,98854.19
2023-01-27T00:03:13.393Z,98854.19
2023-01-27T00:05:40.440Z,98843.63
2023-01-27T00:08:06.987Z,98849.88
2023-01-27T00:10:33.468Z,98849.94
2023-01-27T00:13:18.824Z,98846.09
2023-01-27T00:15:45.370Z,98851.38
2023-01-27T00:18:12.169Z,98843.56
2023-01-27T00:20:57.168Z,98841.41
2023-01-27T00:23:45.580Z,98844.53
2023-01-27T00:26:16.556Z,98846.19
2023-01-27T00:28:45.202Z,98841.66
2023-01-27T00:31:33.443Z,98845.19
2023-01-27T00:34:08.839Z,98842.59
2023-01-27T00:36:41.096Z,98838.56
2023-01-27T00:39:10.567Z,98834.00
2023-01-27T00:41:37.328Z,98851.38
2023-01-27T00:44:05.672Z,98842.06
2023-01-27T00:46:33.084Z,98844.69
2023-01-27T00:48:59.660Z,98850.50
2023-01-27T00:51:26.095Z,98848.97
2023-01-27T00:53:52.564Z,98854.91
2023-01-27T00:56:19.235Z,98850.13
2023-01-27T00:58:45.777Z,98845.91
2023-01-27T01:01:15.658Z,98851.63
2023-01-27T01:03:42.374Z,98845.69
2023-01-27T01:06:12.646Z,98852.91
2023-01-27T01:08:39.235Z,98860.75
2023-01-27T01:11:08.504Z,98862.22
2023-01-27T01:13:35.557Z,98862.91
2023-01-27T01:16:11.438Z,98863.91
2023-01-27T01:18:39.048Z,98863.06
2023-01-27T01:21:06.823Z,98869.94
2023-01-27T01:23:37.546Z,98874.06
2023-01-27T01:26:04.323Z,98870.72
2023-01-27T01:28:30.797Z,98879.47
2023-01-27T01:31:04.117Z,98871.56
2023-01-27T01:33:30.699Z,98873.06
2023-01-27T01:35:57.137Z,98870.63
2023-01-27T01:38:23.605Z,98874.97
2023-01-27T01:40:50.099Z,98874.59
2023-01-27T01:43:18.656Z,98878.38
2023-01-27T01:45:54.392Z,98881.72
2023-01-27T01:48:42.358Z,98870.66
2023-01-27T01:51:20.255Z,98869.44
2023-01-27T01:54:11.190Z,98871.94
2023-01-27T01:56:55.816Z,98874.47
2023-01-27T01:59:36.472Z,98883.13
2023-01-27T02:02:10.031Z,98877.06
2023-01-27T02:04:56.881Z,98874.75
2023-01-27T02:07:59.323Z,98873.69
2023-01-27T02:10:26.077Z,98876.38
2023-01-27T02:12:52.528Z,98875.00
2023-01-27T02:15:21.440Z,98871.50
2023-01-27T02:17:49.240Z,98873.00
2023-01-27T02:20:29.430Z,98875.41
2023-01-27T02:23:28.119Z,98874.59
2023-01-27T02:26:17.566Z,98877.00
2023-01-27T02:28:44.485Z,98878.59
2023-01-27T02:31:11.209Z,98875.91
2023-01-27T02:33:37.762Z,98876.72
2023-01-27T02:36:17.776Z,98873.69
2023-01-27T02:38:50.313Z,98886.41
2023-01-27T02:41:28.105Z,98880.47
2023-01-27T02:43:55.707Z,98881.88
2023-01-27T02:46:23.024Z,98882.59
2023-01-27T02:48:49.661Z,98882.41
2023-01-27T02:51:16.176Z,98881.50
2023-01-27T02:53:42.813Z,98886.00
2023-01-27T02:56:09.472Z,98878.97
2023-01-27T02:58:36.049Z,98891.91
2023-01-27T03:01:02.589Z,98892.06
2023-01-27T03:03:29.111Z,98887.78
2023-01-27T03:05:55.708Z,98896.69
2023-01-27T03:08:22.247Z,98893.06
2023-01-27T03:10:54.581Z,98896.41
2023-01-27T03:13:25.944Z,98894.06
2023-01-27T03:16:13.514Z,98896.97
2023-01-27T03:18:41.152Z,98898.72
2023-01-27T03:21:07.605Z,98898.63
2023-01-27T03:23:34.749Z,98896.19
2023-01-27T03:26:06.973Z,98894.28
2023-01-27T03:28:33.619Z,98899.47
2023-01-27T03:31:19.230Z,98893.59
2023-01-27T03:33:47.527Z,98901.63
2023-01-27T03:36:33.661Z,98903.25
2023-01-27T03:39:19.076Z,98900.03
2023-01-27T03:42:04.321Z,98909.97
2023-01-27T03:44:49.487Z,98903.31
2023-01-27T03:47:15.963Z,98905.00
2023-01-27T03:49:42.427Z,98913.38
2023-01-27T03:52:08.906Z,98911.56
2023-01-27T03:54:35.577Z,98914.09
2023-01-27T03:57:05.804Z,98915.53
2023-01-27T03:59:32.840Z,98922.38
2023-01-27T04:02:19.475Z,98916.94
2023-01-27T04:05:04.776Z,98921.97
2023-01-27T04:07:34.047Z,98920.00
2023-01-27T04:10:00.522Z,98918.47
2023-01-27T04:12:27.258Z,98916.41
2023-01-27T04:14:53.691Z,98915.00
2023-01-27T04:17:20.117Z,98911.41
2023-01-27T04:19:47.237Z,98918.16
2023-01-27T04:22:18.266Z,98913.66
2023-01-27T04:24:44.765Z,98919.34
2023-01-27T04:27:15.348Z,98914.25
2023-01-27T04:29:42.882Z,98913.53
2023-01-27T04:32:12.305Z,98918.78
2023-01-27T04:34:40.284Z,98920.63
2023-01-27T04:37:09.840Z,98914.53
2023-01-27T04:39:36.994Z,98920.38
2023-01-27T04:42:03.935Z,98922.66
2023-01-27T04:44:30.596Z,98917.53
2023-01-27T04:46:57.064Z,98915.28
2023-01-27T04:49:23.710Z,98921.19
2023-01-27T04:51:50.206Z,98919.34
2023-01-27T04:54:16.820Z,98924.34
2023-01-27T04:56:59.077Z,98926.25
2023-01-27T04:59:25.776Z,98921.88
2023-01-27T05:01:52.823Z,98928.00
2023-01-27T05:04:19.327Z,98931.38
2023-01-27T05:06:45.845Z,98928.72
2023-01-27T05:09:12.460Z,98936.50
2023-01-27T05:11:39.008Z,98932.13
2023-01-27T05:14:05.483Z,98935.22
2023-01-27T05:16:32.091Z,98937.03
2023-01-27T05:18:58.702Z,98935.59
2023-01-27T05:21:30.832Z,98942.47
2023-01-27T05:23:57.393Z,98940.81
2023-01-27T05:26:27.643Z,98950.00
2023-01-27T05:28:57.812Z,98948.38
2023-01-27T05:31:29.864Z,98955.56
2023-01-27T05:33:59.345Z,98959.16
2023-01-27T05:36:27.049Z,98952.56
2023-01-27T05:38:54.989Z,98954.03
2023-01-27T05:41:22.885Z,98953.25
2023-01-27T05:43:55.645Z,98953.72
2023-01-27T05:46:29.266Z,98953.47
2023-01-27T05:49:00.326Z,98960.72
2023-01-27T05:51:30.989Z,98962.97
2023-01-27T05:53:57.646Z,98964.28
2023-01-27T05:56:26.303Z,98965.03
2023-01-27T05:58:57.746Z,98973.53
2023-01-27T06:01:28.788Z,98978.28
2023-01-27T06:03:56.427Z,98979.97
2023-01-27T06:06:25.878Z,98985.47
2023-01-27T06:08:52.660Z,98982.97
2023-01-27T06:11:21.641Z,98978.34
2023-01-27T06:13:48.631Z,98987.00
2023-01-27T06:16:18.079Z,98983.78
2023-01-27T06:18:45.433Z,98981.06
2023-01-27T06:21:14.141Z,98990.41
2023-01-27T06:23:41.373Z,98985.56
2023-01-27T06:26:16.295Z,98987.69
2023-01-27T06:28:43.418Z,98987.63
2023-01-27T06:31:17.869Z,98983.16
2023-01-27T06:33:45.774Z,98991.44
2023-01-27T06:36:16.844Z,98990.59
2023-01-27T06:38:44.379Z,98991.13
2023-01-27T06:41:11.275Z,98993.59
2023-01-27T06:43:37.795Z,98993.91
2023-01-27T06:46:05.916Z,98993.66
2023-01-27T06:48:33.238Z,98993.50
2023-01-27T06:50:59.798Z,98996.47
2023-01-27T06:53:26.465Z,98997.84
2023-01-27T06:55:59.402Z,98999.25
2023-01-27T06:58:26.928Z,99003.53
2023-01-27T07:00:53.506Z,99003.31
2023-01-27T07:03:20.303Z,99010.34
2023-01-27T07:05:46.838Z,99009.22
2023-01-27T07:08:13.333Z,99017.84
2023-01-27T07:10:39.859Z,99013.91
2023-01-27T07:13:13.427Z,99015.88
2023-01-27T07:15:40.477Z,99019.03
2023-01-27T07:18:07.484Z,99029.41
2023-01-27T07:20:34.874Z,99022.41
2023-01-27T07:23:04.452Z,99022.91
2023-01-27T07:25:33.524Z,99030.53
2023-01-27T07:28:02.359Z,99022.91
2023-01-27T07:30:29.756Z,99022.69
2023-01-27T07:32:56.301Z,99026.09
2023-01-27T07:35:23.407Z,99020.28
2023-01-27T07:37:49.961Z,99022.66
2023-01-27T07:40:16.807Z,99031.03
2023-01-27T07:42:43.439Z,99024.63
2023-01-27T07:45:10.533Z,99027.44
2023-01-27T07:47:37.216Z,99028.31
2023-01-27T07:50:03.847Z,99027.63
2023-01-27T07:52:30.332Z,99031.69
2023-01-27T07:54:56.824Z,99029.63
2023-01-27T07:57:23.312Z,99033.75
2023-01-27T07:59:53.035Z,99027.81
2023-01-27T08:02:19.478Z,99037.09
2023-01-27T08:04:53.672Z,99039.53
2023-01-27T08:07:21.456Z,99043.97
2023-01-27T08:09:48.159Z,99048.25
2023-01-27T08:12:15.105Z,99047.19
2023-01-27T08:14:41.662Z,99051.47
2023-01-27T08:17:08.296Z,99059.13
2023-01-27T08:19:34.824Z,99061.03
2023-01-27T08:22:01.333Z,99059.72
2023-01-27T08:24:27.944Z,99061.50
2023-01-27T08:26:54.701Z,99058.56
2023-01-27T08:29:21.206Z,99052.38
2023-01-27T08:31:47.960Z,99061.19
2023-01-27T08:34:15.013Z,99061.41
2023-01-27T08:36:43.409Z,99063.56
2023-01-27T08:39:11.481Z,99061.03
2023-01-27T08:41:38.766Z,99057.34
2023-01-27T08:44:05.713Z,99064.25
2023-01-27T08:46:32.313Z,99064.47
2023-01-27T08:48:58.769Z,99065.16
2023-01-27T08:51:25.391Z,99076.72
2023-01-27T08:53:51.889Z,99074.81
2023-01-27T08:56:18.627Z,99069.47
2023-01-27T08:58:47.288Z,99063.03
2023-01-27T09:01:15.669Z,99066.16
2023-01-27T09:03:42.198Z,99066.09
2023-01-27T09:06:12.580Z,99066.09
2023-01-27T09:08:41.289Z,99060.06
2023-01-27T09:11:13.697Z,99060.66
2023-01-27T09:13:40.644Z,99059.56
2023-01-27T09:16:08.179Z,99061.97
2023-01-27T09:18:35.897Z,99063.41
2023-01-27T09:21:06.847Z,99069.69
2023-01-27T09:23:34.336Z,99060.56
2023-01-27T09:26:00.858Z,99073.53
2023-01-27T09:28:27.468Z,99076.22
2023-01-27T09:30:58.606Z,99076.97
2023-01-27T09:33:26.069Z,99082.72
2023-01-27T09:36:02.993Z,99078.72
2023-01-27T09:38:49.750Z,99084.09
2023-01-27T09:42:15.728Z,99091.75
2023-01-27T09:45:20.331Z,99098.03
2023-01-27T09:48:47.136Z,99088.16
2023-01-27T09:51:58.950Z,99097.97
2023-01-27T09:55:12.093Z,99108.00
2023-01-27T09:58:16.978Z,99110.59
2023-01-27T10:01:06.762Z,99114.38
2023-01-27T10:04:04.131Z,99121.38
2023-01-27T10:06:51.728Z,99111.63
2023-01-27T10:09:50.502Z,99118.41
2023-01-27T10:12:35.118Z,99117.59
2023-01-27T10:15:16.710Z,99114.38
2023-01-27T10:18:12.750Z,99119.00
2023-01-27T10:21:01.591Z,99125.81
2023-01-27T10:24:05.990Z,99117.69
2023-01-27T10:26:50.212Z,99120.72
2023-01-27T10:29:33.274Z,99126.31
2023-01-27T10:32:09.448Z,99119.16
2023-01-27T10:34:47.063Z,99120.66
2023-01-27T10:37:35.324Z,99120.94
2023-01-27T10:40:20.124Z,99130.59
2023-01-27T10:43:11.769Z,99134.44
2023-01-27T10:45:56.331Z,99127.78
2023-01-27T10:49:07.795Z,99125.69
2023-01-27T10:51:47.181Z,99127.78
2023-01-27T10:54:38.823Z,99129.63
2023-01-27T10:57:38.965Z,99138.06
2023-01-27T11:00:46.548Z,99139.78
2023-01-27T11:03:23.172Z,99136.63
2023-01-27T11:05:56.365Z,99139.22
2023-01-27T11:08:31.972Z,99143.59
2023-01-27T11:11:23.449Z,99132.88
2023-01-27T11:14:02.195Z,99131.50
2023-01-27T11:16:38.509Z,99129.34
2023-01-27T11:19:33.257Z,99130.50
2023-01-27T11:22:08.159Z,99131.16
2023-01-27T11:24:49.866Z,99124.59
2023-01-27T11:27:24.125Z,99124.28
2023-01-27T11:30:04.256Z,99115.72
2023-01-27T11:33:06.115Z,99131.31
2023-01-27T11:35:32.759Z,99114.34
2023-01-27T11:38:14.584Z,99116.78
2023-01-27T11:40:44.045Z,99122.84
2023-01-27T11:43:19.942Z,99115.63
2023-01-27T11:45:48.139Z,99115.00
2023-01-27T11:48:22.348Z,99110.25
2023-01-27T11:50:49.850Z,99106.22
2023-01-27T11:53:36.675Z,99109.66
2023-01-27T11:56:15.877Z,99102.38
2023-01-27T11:59:16.222Z,99102.03
2023-01-27T12:01:59.265Z,99098.78
2023-01-27T12:04:55.270Z,99098.34
2023-01-27T12:07:54.382Z,99089.50
2023-01-27T12:10:42.090Z,99093.41
2023-01-27T12:13:25.425Z,99092.78
2023-01-27T12:16:01.841Z,99090.84
2023-01-27T12:18:33.755Z,99087.44
2023-01-27T12:21:04.871Z,99094.28
2023-01-27T12:23:38.514Z,99087.09
2023-01-27T12:26:09.680Z,99088.91
2023-01-27T12:29:02.051Z,99086.47
2023-01-27T12:31:32.880Z,99087.31
2023-01-27T12:34:12.997Z,99088.13
2023-01-27T12:36:44.183Z,99080.94
2023-01-27T12:39:38.347Z,99080.09
2023-01-27T12:42:04.808Z,99078.84
2023-01-27T12:44:43.616Z,99082.03
2023-01-27T12:47:36.570Z,99076.25
2023-01-27T12:50:27.661Z,99079.75
2023-01-27T12:53:05.866Z,99073.19
2023-01-27T12:55:51.583Z,99077.69
2023-01-27T12:58:33.562Z,99078.47
2023-01-27T13:01:20.381Z,99087.22
2023-01-27T13:03:54.886Z,99082.66
2023-01-27T13:06:32.921Z,99081.44
2023-01-27T13:09:02.070Z,99078.25
2023-01-27T13:11:39.145Z,99073.13
2023-01-27T13:14:17.180Z,99072.16
2023-01-27T13:16:55.940Z,99071.41
2023-01-27T13:19:37.006Z,99082.69
2023-01-27T13:22:05.733Z,99079.47
2023-01-27T13:24:42.539Z,99085.06
2023-01-27T13:27:19.804Z,99080.69
2023-01-27T13:30:03.659Z,99083.06
2023-01-27T13:32:36.727Z,99087.88
2023-01-27T13:35:45.123Z,99090.34
2023-01-27T13:38:24.325Z,99087.94
2023-01-27T13:40:51.117Z,99093.16
2023-01-27T13:43:30.326Z,99094.50
2023-01-27T13:46:17.352Z,99095.22
2023-01-27T13:48:54.877Z,99100.63
2023-01-27T13:51:28.299Z,99097.03
2023-01-27T13:54:04.183Z,99101.75
2023-01-27T13:56:55.273Z,99102.13
2023-01-27T14:00:01.917Z,99105.88
2023-01-27T14:03:15.822Z,99112.94
2023-01-27T14:06:03.276Z,99112.94
2023-01-27T14:08:55.507Z,99112.72
2023-01-27T14:11:38.842Z,99122.81
2023-01-27T14:14:58.459Z,99112.94
2023-01-27T14:17:45.868Z,99119.34
2023-01-27T14:20:40.140Z,99121.53
2023-01-27T14:23:52.859Z,99120.63
2023-01-27T14:26:47.081Z,99121.09
2023-01-27T14:29:43.492Z,99122.88
2023-01-27T14:32:56.253Z,99123.78
2023-01-27T14:35:45.635Z,99133.50
2023-01-27T14:38:34.409Z,99146.28
2023-01-27T14:41:31.235Z,99136.84
2023-01-27T14:44:44.119Z,99136.75
2023-01-27T14:47:49.887Z,99139.44
2023-01-27T14:50:53.812Z,99127.94
2023-01-27T14:54:04.006Z,99136.56
2023-01-27T14:56:57.402Z,99137.28
2023-01-27T15:00:01.438Z,99136.59
2023-01-27T15:03:00.082Z,99142.38
2023-01-27T15:06:11.082Z,99143.25
2023-01-27T15:08:53.903Z,99143.72
2023-01-27T15:12:24.463Z,99146.25
2023-01-27T15:15:28.347Z,99161.56
2023-01-27T15:18:23.678Z,99163.88
2023-01-27T15:21:19.090Z,99159.78
2023-01-27T15:24:09.038Z,99156.34
2023-01-27T15:26:37.974Z,99157.41
2023-01-27T15:29:05.850Z,99163.47
2023-01-27T15:31:32.786Z,99168.00
2023-01-27T15:34:16.483Z,99167.91
2023-01-27T15:37:24.993Z,99180.81
2023-01-27T15:40:05.917Z,99175.03
2023-01-27T15:42:52.283Z,99178.53
2023-01-27T15:45:39.070Z,99181.19
2023-01-27T15:48:14.779Z,99184.94
2023-01-27T15:51:07.777Z,99186.06
2023-01-27T15:53:56.280Z,99189.41
2023-01-27T15:56:44.550Z,99187.75
2023-01-27T15:59:57.214Z,99191.47
2023-01-27T16:02:29.715Z,99190.09
2023-01-27T16:05:23.836Z,99188.47
2023-01-27T16:07:55.487Z,99188.47
2023-01-27T16:10:27.452Z,99197.13
2023-01-27T16:13:12.970Z,99196.91
2023-01-27T16:15:39.486Z,99197.25
2023-01-27T16:18:08.776Z,99200.75
2023-01-27T16:21:02.145Z,99206.91
2023-01-27T16:23:56.564Z,99202.75
2023-01-27T16:26:43.091Z,99205.38
2023-01-27T16:29:12.256Z,99209.78
2023-01-27T16:31:41.931Z,99211.19
2023-01-27T16:34:25.829Z,99206.66
2023-01-27T16:37:33.683Z,99209.03
2023-01-27T16:40:22.360Z,99204.56
2023-01-27T16:43:16.626Z,99210.31
2023-01-27T16:45:49.883Z,99218.50
2023-01-27T16:48:44.886Z,99222.19
2023-01-27T16:51:26.008Z,99225.72
2023-01-27T16:53:59.779Z,99230.09
2023-01-27T16:56:34.564Z,99236.47
2023-01-27T16:59:07.369Z,99237.38
2023-01-27T17:01:50.424Z,99247.66
2023-01-27T17:04:26.999Z,99246.63
2023-01-27T17:06:58.875Z,99251.06
2023-01-27T17:09:31.767Z,99253.38
2023-01-27T17:11:59.406Z,99254.31
2023-01-27T17:14:35.519Z,99255.25
2023-01-27T17:17:14.935Z,99250.97
2023-01-27T17:19:48.403Z,99245.69
2023-01-27T17:22:25.779Z,99254.00
2023-01-27T17:24:56.579Z,99256.59
2023-01-27T17:27:33.857Z,99251.47
2023-01-27T17:30:08.386Z,99259.13
2023-01-27T17:32:39.444Z,99261.66
2023-01-27T17:35:20.198Z,99261.72
2023-01-27T17:37:46.832Z,99260.75
2023-01-27T17:40:21.099Z,99266.88
2023-01-27T17:42:49.444Z,99254.50
2023-01-27T17:45:24.457Z,99264.06
2023-01-27T17:47:51.133Z,99266.69
2023-01-27T17:50:25.129Z,99269.75
2023-01-27T17:52:54.279Z,99270.44
2023-01-27T17:55:25.586Z,99275.25
2023-01-27T17:58:05.522Z,99272.63
2023-01-27T18:00:40.208Z,99274.03
2023-01-27T18:03:32.755Z,99279.03
2023-01-27T18:05:59.577Z,99278.28
2023-01-27T18:08:26.042Z,99284.41
2023-01-27T18:10:52.857Z,99281.75
2023-01-27T18:13:19.243Z,99276.75
2023-01-27T18:16:13.590Z,99286.47
2023-01-27T18:18:40.357Z,99282.78
2023-01-27T18:21:09.475Z,99282.78
2023-01-27T18:23:57.881Z,99281.09
2023-01-27T18:26:31.838Z,99280.41
2023-01-27T18:29:22.657Z,99284.78
2023-01-27T18:31:57.746Z,99285.41
2023-01-27T18:34:33.725Z,99282.16
2023-01-27T18:37:08.943Z,99287.63
2023-01-27T18:39:41.402Z,99288.97
2023-01-27T18:42:16.414Z,99287.22
2023-01-27T18:44:43.096Z,99285.47
2023-01-27T18:47:23.059Z,99285.59
2023-01-27T18:50:01.922Z,99288.34
2023-01-27T18:52:29.470Z,99286.72
2023-01-27T18:55:10.315Z,99291.34
2023-01-27T18:57:36.940Z,99298.25
2023-01-27T19:00:05.142Z,99301.84
2023-01-27T19:02:31.950Z,99301.91
2023-01-27T19:04:58.599Z,99294.88
2023-01-27T19:07:26.651Z,99297.34
2023-01-27T19:09:53.202Z,99304.28
2023-01-27T19:12:19.784Z,99306.06
2023-01-27T19:14:48.290Z,99307.47
2023-01-27T19:17:23.064Z,99307.69
2023-01-27T19:19:49.936Z,99318.59
2023-01-27T19:22:19.469Z,99313.41
2023-01-27T19:24:46.267Z,99316.91
2023-01-27T19:27:17.407Z,99313.47
2023-01-27T19:29:44.081Z,99321.94
2023-01-27T19:32:15.315Z,99319.50
2023-01-27T19:34:42.023Z,99311.97
2023-01-27T19:37:18.503Z,99312.56
2023-01-27T19:39:46.756Z,99316.84
2023-01-27T19:42:15.694Z,99308.91
2023-01-27T19:44:42.583Z,99316.72
2023-01-27T19:47:13.753Z,99317.56
2023-01-27T19:49:41.123Z,99322.72
2023-01-27T19:52:07.688Z,99325.09
2023-01-27T19:54:34.555Z,99320.81
2023-01-27T19:57:01.414Z,99332.13
2023-01-27T19:59:28.388Z,99326.72
2023-01-27T20:01:56.532Z,99321.78
2023-01-27T20:04:23.187Z,99328.25
2023-01-27T20:06:52.584Z,99330.00
2023-01-27T20:09:19.093Z,99334.63
2023-01-27T20:11:45.584Z,99331.97
2023-01-27T20:14:19.313Z,99328.84
2023-01-27T20:16:47.077Z,99332.09
2023-01-27T20:19:17.490Z,99333.66
2023-01-27T20:21:45.916Z,99335.44
2023-01-27T20:24:16.104Z,99331.97
2023-01-27T20:26:42.681Z,99342.91
2023-01-27T20:29:09.157Z,99342.94
2023-01-27T20:31:38.819Z,99343.03
2023-01-27T20:34:06.176Z,99349.09
2023-01-27T20:36:32.872Z,99348.81
2023-01-27T20:38:59.315Z,99352.25
2023-01-27T20:41:25.866Z,99351.47
2023-01-27T20:44:02.590Z,99348.25
2023-01-27T20:46:29.742Z,99351.69
2023-01-27T20:48:58.397Z,99354.53
2023-01-27T20:51:24.905Z,99348.94
2023-01-27T20:53:51.379Z,99349.59
2023-01-27T20:56:23.749Z,99352.19
2023-01-27T20:58:50.825Z,99352.16
2023-01-27T21:01:21.856Z,99356.25
2023-01-27T21:03:50.274Z,99351.81
2023-01-27T21:06:19.706Z,99355.88
2023-01-27T21:08:49.384Z,99356.56
2023-01-27T21:11:19.497Z,99356.50
2023-01-27T21:13:46.663Z,99355.00
2023-01-27T21:16:14.046Z,99365.16
2023-01-27T21:18:40.737Z,99369.66
2023-01-27T21:21:07.274Z,99371.22
2023-01-27T21:23:34.812Z,99364.31
2023-01-27T21:26:11.491Z,99366.25
2023-01-27T21:28:37.878Z,99365.13
2023-01-27T21:31:11.023Z,99367.16
2023-01-27T21:33:39.556Z,99366.84
2023-01-27T21:36:10.565Z,99363.41
2023-01-27T21:38:39.125Z,99361.31
2023-01-27T21:41:45.172Z,99357.22
2023-01-27T21:44:46.239Z,99359.78
2023-01-27T21:47:16.498Z,99372.72
2023-01-27T21:50:00.216Z,99363.19
2023-01-27T21:52:35.835Z,99353.75
2023-01-27T21:55:05.992Z,99358.97
2023-01-27T21:57:33.336Z,99360.34
2023-01-27T21:59:59.876Z,99358.72
2023-01-27T22:02:26.639Z,99355.97
2023-01-27T22:04:53.216Z,99355.97
2023-01-27T22:07:20.266Z,99350.72
2023-01-27T22:09:47.114Z,99349.03
2023-01-27T22:12:16.185Z,99353.50
2023-01-27T22:14:43.671Z,99353.50
2023-01-27T22:17:10.671Z,99350.19
2023-01-27T22:19:39.009Z,99350.13
2023-01-27T22:22:07.726Z,99332.16
2023-01-27T22:24:34.180Z,99348.78
2023-01-27T22:27:00.809Z,99348.78
2023-01-27T22:29:27.285Z,99354.28
2023-01-27T22:31:53.824Z,99339.22
2023-01-27T22:34:20.433Z,99344.19
2023-01-27T22:36:52.516Z,99344.84
2023-01-27T22:39:19.534Z,99355.13
2023-01-27T22:41:46.426Z,99351.66
2023-01-27T22:44:14.329Z,99358.50
2023-01-27T22:46:42.563Z,99358.41
2023-01-27T22:49:10.985Z,99352.44
2023-01-27T22:51:38.137Z,99354.34
2023-01-27T22:54:04.823Z,99360.72
2023-01-27T22:56:31.612Z,99361.59
2023-01-27T22:58:58.085Z,99366.94
2023-01-27T23:01:24.631Z,99366.31
2023-01-27T23:03:51.116Z,99363.78
2023-01-27T23:06:17.597Z,99361.91
2023-01-27T23:08:44.208Z,99366.81
2023-01-27T23:11:11.777Z,99362.94
2023-01-27T23:13:38.288Z,99372.25
2023-01-27T23:16:05.422Z,99368.81
2023-01-27T23:18:32.008Z,99369.66
2023-01-27T23:21:05.055Z,99375.66
2023-01-27T23:23:31.784Z,99365.19
2023-01-27T23:25:58.372Z,99371.00
2023-01-27T23:28:25.981Z,99374.22
2023-01-27T23:30:52.786Z,99377.72
2023-01-27T23:33:20.550Z,99381.44
2023-01-27T23:35:47.692Z,99381.34
2023-01-27T23:38:30.547Z,99378.84
2023-01-27T23:41:18.121Z,99391.03
2023-01-27T23:43:50.423Z,99380.53
2023-01-27T23:46:17.105Z,99378.06
2023-01-27T23:48:43.788Z,99385.75
2023-01-27T23:51:13.509Z,99378.34
2023-01-27T23:53:40.253Z,99376.97
2023-01-27T23:56:11.670Z,99376.84
2023-01-27T23:58:38.688Z,99375.03
